createdAt,value
2022-08-14T00:00:02.843Z,69.7
2022-08-14T00:03:02.813Z,69.7
2022-08-14T00:06:02.848Z,69.3
2022-08-14T00:09:02.796Z,69.3
2022-08-14T00:12:02.896Z,69.7
2022-08-14T00:15:05.318Z,69.7
2022-08-14T00:18:02.838Z,69.7
2022-08-14T00:21:03.424Z,69.7
2022-08-14T00:24:04.512Z,69.7
2022-08-14T00:27:05.057Z,69.7
2022-08-14T00:30:06.311Z,69.7
2022-08-14T00:33:18.454Z,69.7
2022-08-14T00:36:52.025Z,69.7
2022-08-14T00:39:02.811Z,69.7
2022-08-14T00:42:05.018Z,69.7
2022-08-14T00:45:03.057Z,69.7
2022-08-14T00:48:02.983Z,69.7
2022-08-14T00:51:02.766Z,71.9
2022-08-14T00:54:02.760Z,71.9
2022-08-14T00:57:03.194Z,71.9
2022-08-14T01:00:02.961Z,71.9
2022-08-14T01:03:02.975Z,71.9
2022-08-14T01:06:09.405Z,71.8
2022-08-14T01:09:04.003Z,71.8
2022-08-14T01:12:05.934Z,71.8
2022-08-14T01:15:04.695Z,71.8
2022-08-14T01:18:02.815Z,71.8
2022-08-14T01:21:03.236Z,71.8
2022-08-14T01:24:03.019Z,71.8
2022-08-14T01:27:03.893Z,71.8
2022-08-14T01:30:07.106Z,71.8
2022-08-14T01:33:02.862Z,73.1
2022-08-14T01:36:23.455Z,73.1
2022-08-14T01:39:03.324Z,73.1
2022-08-14T01:42:02.861Z,73.1
2022-08-14T01:45:04.254Z,73.1
2022-08-14T01:48:06.092Z,73.1
2022-08-14T01:51:03.538Z,73.1
2022-08-14T01:54:03.800Z,73.1
2022-08-14T01:57:02.789Z,73.1
2022-08-14T02:00:05.391Z,73.1
2022-08-14T02:03:02.773Z,73.1
2022-08-14T02:06:35.913Z,74
2022-08-14T02:09:03.157Z,74
2022-08-14T02:12:04.999Z,74
2022-08-14T02:15:03.974Z,74
2022-08-14T02:18:02.856Z,74
2022-08-14T02:21:02.837Z,74
2022-08-14T02:24:02.814Z,74
2022-08-14T02:30:05.186Z,74
2022-08-14T02:33:03.756Z,74
2022-08-14T02:39:02.818Z,74.8
2022-08-14T02:42:06.505Z,74.8
2022-08-14T02:45:03.599Z,74.8
2022-08-14T02:48:03.936Z,74.8
2022-08-14T02:51:04.320Z,74.8
2022-08-14T02:54:03.765Z,74.8
2022-08-14T02:57:42.380Z,75.4
2022-08-14T03:00:02.823Z,75.5
2022-08-14T03:03:07.555Z,75.5
2022-08-14T03:06:02.840Z,75.5
2022-08-14T03:09:03.092Z,75.5
2022-08-14T03:12:07.130Z,75.5
2022-08-14T03:15:02.899Z,75.5
2022-08-14T03:18:02.752Z,75.5
2022-08-14T03:21:02.906Z,75.5
2022-08-14T03:24:02.816Z,75.5
2022-08-14T03:27:02.794Z,75.5
2022-08-14T03:30:14.283Z,75.5
2022-08-14T03:33:02.771Z,75.5
2022-08-14T03:39:27.516Z,75.5
2022-08-14T03:42:04.228Z,75.5
2022-08-14T03:45:37.527Z,75.5
2022-08-14T03:48:04.440Z,75.5
2022-08-14T03:51:03.869Z,75.5
2022-08-14T03:54:04.363Z,76
2022-08-14T03:57:05.664Z,76
2022-08-14T04:00:47.884Z,76
2022-08-14T04:03:06.379Z,75.9
2022-08-14T04:06:03.261Z,75.9
2022-08-14T04:09:03.932Z,75.9
2022-08-14T04:12:04.089Z,75.9
2022-08-14T04:15:02.886Z,75.9
2022-08-14T04:18:06.087Z,75.9
2022-08-14T04:21:04.075Z,75.9
2022-08-14T04:24:02.811Z,75.9
2022-08-14T04:27:02.789Z,75.9
2022-08-14T04:30:07.510Z,75.9
2022-08-14T04:33:20.463Z,75.9
2022-08-14T04:36:02.813Z,75.9
2022-08-14T04:39:02.798Z,76.1
2022-08-14T04:42:02.924Z,76.1
2022-08-14T04:45:03.736Z,76.1
2022-08-14T04:48:02.804Z,76
2022-08-14T04:51:03.450Z,76
2022-08-14T04:54:03.028Z,76
2022-08-14T04:57:02.773Z,76
2022-08-14T05:00:03.129Z,76
2022-08-14T05:03:03.186Z,76
2022-08-14T05:06:03.076Z,76
2022-08-14T05:09:03.155Z,76
2022-08-14T05:15:03.571Z,76.2
2022-08-14T05:24:02.813Z,76.2
2022-08-14T05:27:03.270Z,76.2
2022-08-14T05:30:03.221Z,76.2
2022-08-14T05:33:02.778Z,76.2
2022-08-14T05:36:02.971Z,76.2
2022-08-14T05:39:05.055Z,76.2
2022-08-14T05:42:21.883Z,78
2022-08-14T05:45:02.967Z,78
2022-08-14T05:48:04.044Z,78
2022-08-14T05:51:03.902Z,78
2022-08-14T05:54:30.625Z,78
2022-08-14T05:57:03.384Z,78
2022-08-14T06:00:02.992Z,78
2022-08-14T06:03:08.881Z,78.2
2022-08-14T06:06:03.815Z,78.2
2022-08-14T06:09:03.234Z,78.2
2022-08-14T06:12:02.786Z,78.2
2022-08-14T06:15:02.881Z,78.2
2022-08-14T06:18:04.039Z,78.2
2022-08-14T06:21:04.359Z,77.1
2022-08-14T06:24:03.515Z,77.1
2022-08-14T06:27:12.002Z,77.1
2022-08-14T06:30:04.974Z,77.1
2022-08-14T06:33:09.029Z,77.1
2022-08-14T06:36:02.809Z,76.3
2022-08-14T06:39:04.008Z,76.9
2022-08-14T06:42:02.951Z,76.9
2022-08-14T06:45:05.049Z,76.9
2022-08-14T06:48:03.368Z,75.5
2022-08-14T06:51:02.828Z,75.5
2022-08-14T06:54:03.022Z,75.5
2022-08-14T06:57:02.812Z,74.5
2022-08-14T07:00:03.004Z,74.5
2022-08-14T07:03:02.821Z,74.5
2022-08-14T07:06:02.905Z,73.7
2022-08-14T07:09:04.281Z,73.7
2022-08-14T07:12:03.842Z,73.7
2022-08-14T07:15:03.822Z,73.7
2022-08-14T07:18:03.174Z,72.6
2022-08-14T07:21:02.852Z,72.6
2022-08-14T07:24:02.942Z,72.6
2022-08-14T07:27:02.827Z,71.1
2022-08-14T07:30:05.013Z,71.1
2022-08-14T07:33:03.675Z,71.1
2022-08-14T07:36:03.318Z,70
2022-08-14T07:39:12.121Z,70
2022-08-14T07:42:03.949Z,70
2022-08-14T07:45:03.108Z,70
2022-08-14T07:48:02.808Z,68
2022-08-14T07:51:12.940Z,68
2022-08-14T07:54:03.434Z,68
2022-08-14T07:57:22.287Z,68
2022-08-14T08:00:02.932Z,68
2022-08-14T08:03:03.578Z,67.9
2022-08-14T08:06:03.369Z,67.9
2022-08-14T08:09:05.694Z,67.9
2022-08-14T08:12:09.435Z,67.9
2022-08-14T08:15:09.897Z,67.9
2022-08-14T08:18:06.223Z,66.2
2022-08-14T08:21:02.896Z,66.2
2022-08-14T08:24:05.744Z,66.2
2022-08-14T08:27:02.864Z,65.6
2022-08-14T08:30:02.859Z,65.6
2022-08-14T08:33:05.095Z,65.6
2022-08-14T08:36:02.827Z,65.6
2022-08-14T08:39:26.198Z,65.6
2022-08-14T08:42:06.342Z,65.6
2022-08-14T08:45:02.857Z,65.6
2022-08-14T08:48:20.805Z,65.6
2022-08-14T08:51:05.029Z,65.6
2022-08-14T08:54:03.320Z,64.9
2022-08-14T08:57:02.768Z,64.9
2022-08-14T09:00:09.727Z,64.9
2022-08-14T09:03:02.776Z,64.9
2022-08-14T09:06:02.831Z,64.9
2022-08-14T09:09:03.446Z,64.9
2022-08-14T09:12:02.890Z,64.9
2022-08-14T09:15:02.845Z,64.9
2022-08-14T09:18:03.203Z,64.9
2022-08-14T09:21:02.782Z,64.9
2022-08-14T09:24:43.899Z,62.9
2022-08-14T09:27:02.823Z,63.1
2022-08-14T09:30:12.957Z,63.1
2022-08-14T09:33:06.252Z,63.1
2022-08-14T09:36:02.862Z,63.1
2022-08-14T09:39:02.969Z,63.1
2022-08-14T09:42:36.120Z,63.1
2022-08-14T09:45:10.919Z,63.1
2022-08-14T09:48:03.886Z,61
2022-08-14T09:54:25.635Z,61
2022-08-14T09:57:03.385Z,61
2022-08-14T10:00:02.884Z,61
2022-08-14T10:03:07.328Z,61
2022-08-14T10:06:03.506Z,60
2022-08-14T10:09:04.114Z,60
2022-08-14T10:12:06.409Z,60
2022-08-14T10:15:05.037Z,60
2022-08-14T10:18:02.805Z,59.7
2022-08-14T10:21:02.786Z,59.7
2022-08-14T10:24:02.879Z,59.4
2022-08-14T10:27:03.502Z,59.4
2022-08-14T10:30:03.098Z,59.4
2022-08-14T10:33:03.444Z,59.4
2022-08-14T10:36:02.823Z,59.4
2022-08-14T10:39:03.407Z,59.4
2022-08-14T10:42:04.153Z,59.4
2022-08-14T10:45:03.503Z,57.5
2022-08-14T10:48:39.448Z,57.5
2022-08-14T10:51:02.856Z,57.5
2022-08-14T10:54:16.777Z,57.5
2022-08-14T10:57:09.512Z,57.3
2022-08-14T11:00:03.335Z,57.3
2022-08-14T11:03:04.017Z,57.3
2022-08-14T11:06:02.881Z,57.3
2022-08-14T11:09:02.921Z,57.3
2022-08-14T11:12:42.766Z,57.3
2022-08-14T11:15:05.116Z,56.5
2022-08-14T11:18:04.911Z,56.5
2022-08-14T11:21:04.130Z,56.5
2022-08-14T11:24:02.859Z,56.5
2022-08-14T11:27:03.470Z,55.2
2022-08-14T11:30:56.265Z,55.2
2022-08-14T11:33:02.832Z,55.2
2022-08-14T11:36:03.876Z,55.2
2022-08-14T11:39:02.867Z,55.2
2022-08-14T11:42:59.273Z,55.2
2022-08-14T11:45:03.184Z,55.2
2022-08-14T11:51:02.778Z,55.2
2022-08-14T11:54:02.840Z,55.2
2022-08-14T11:57:04.517Z,54.4
2022-08-14T12:00:03.053Z,54.4
2022-08-14T12:03:07.161Z,54.4
2022-08-14T12:06:02.831Z,54.4
2022-08-14T12:09:03.174Z,53.5
2022-08-14T12:12:03.213Z,53.5
2022-08-14T12:15:02.828Z,53.5
2022-08-14T12:18:03.550Z,54.2
2022-08-14T12:21:02.901Z,54.2
2022-08-14T12:24:04.048Z,54.2
2022-08-14T12:27:03.175Z,54.2
2022-08-14T12:30:02.873Z,54.2
2022-08-14T12:33:04.087Z,54.2
2022-08-14T12:36:06.813Z,54.2
2022-08-14T12:39:02.760Z,51.2
2022-08-14T12:42:03.548Z,51.2
2022-08-14T12:45:06.996Z,51.2
2022-08-14T12:48:31.229Z,51.2
2022-08-14T12:51:02.797Z,51.2
2022-08-14T12:54:02.874Z,50.6
2022-08-14T12:57:03.136Z,50.6
2022-08-14T13:00:24.746Z,50.6
2022-08-14T13:03:04.218Z,50.6
2022-08-14T13:06:04.425Z,50.5
2022-08-14T13:09:03.278Z,50.1
2022-08-14T13:13:03.259Z,50.1
2022-08-14T13:15:08.797Z,50.1
2022-08-14T13:18:03.080Z,50.1
2022-08-14T13:21:04.474Z,50.1
2022-08-14T13:24:04.171Z,50.1
2022-08-14T13:27:02.829Z,50.1
2022-08-14T13:30:05.402Z,50.1
2022-08-14T13:33:03.314Z,50.1
2022-08-14T13:36:02.851Z,48.2
2022-08-14T13:39:02.954Z,48.2
2022-08-14T13:42:02.871Z,48.2
2022-08-14T13:45:03.197Z,48.2
2022-08-14T13:48:02.813Z,47.4
2022-08-14T13:51:04.952Z,47.4
2022-08-14T13:54:13.583Z,47.4
2022-08-14T13:57:02.982Z,47.4
2022-08-14T14:00:02.876Z,47.4
2022-08-14T14:03:02.783Z,47
2022-08-14T14:06:02.776Z,47
2022-08-14T14:09:02.818Z,46.4
2022-08-14T14:12:04.106Z,46.4
2022-08-14T14:15:07.733Z,46.4
2022-08-14T14:18:02.846Z,46.4
2022-08-14T14:21:02.954Z,46.4
2022-08-14T14:24:03.925Z,46.4
2022-08-14T14:27:41.766Z,47
2022-08-14T14:30:15.058Z,47
2022-08-14T14:33:45.047Z,47
2022-08-14T14:36:02.803Z,47
2022-08-14T14:39:02.806Z,47
2022-08-14T14:42:09.316Z,47
2022-08-14T14:45:02.788Z,47
2022-08-14T14:48:02.922Z,47
2022-08-14T14:51:02.815Z,47
2022-08-14T14:54:02.776Z,47
2022-08-14T14:57:04.459Z,47
2022-08-14T15:00:02.938Z,47
2022-08-14T15:03:02.799Z,47
2022-08-14T15:06:02.831Z,44.5
2022-08-14T15:09:04.780Z,44.5
2022-08-14T15:12:05.622Z,44.5
2022-08-14T15:15:11.622Z,44.5
2022-08-14T15:18:03.499Z,44.5
2022-08-14T15:21:02.907Z,44.5
2022-08-14T15:24:02.827Z,44.5
2022-08-14T15:27:03.059Z,44.5
2022-08-14T15:30:04.747Z,44.7
2022-08-14T15:33:02.879Z,44.7
2022-08-14T15:36:03.752Z,44.7
2022-08-14T15:39:02.868Z,44.7
2022-08-14T15:42:02.901Z,44.7
2022-08-14T15:45:04.648Z,44.7
2022-08-14T15:48:02.876Z,44.7
2022-08-14T15:51:02.823Z,44.7
2022-08-14T15:54:05.053Z,44.7
2022-08-14T15:57:02.988Z,42.4
2022-08-14T16:00:03.158Z,42.4
2022-08-14T16:03:02.813Z,42.4
2022-08-14T16:06:03.267Z,42.4
2022-08-14T16:09:13.499Z,42.4
2022-08-14T16:12:02.866Z,42.4
2022-08-14T16:15:04.429Z,42.4
2022-08-14T16:18:02.871Z,42.4
2022-08-14T16:21:02.823Z,43.2
2022-08-14T16:24:02.987Z,43.2
2022-08-14T16:27:05.049Z,43.2
2022-08-14T16:30:06.280Z,43.2
2022-08-14T16:33:04.858Z,43.2
2022-08-14T16:36:03.045Z,43.2
2022-08-14T16:39:02.849Z,43.2
2022-08-14T16:43:03.631Z,43.2
2022-08-14T16:45:02.792Z,43.2
2022-08-14T16:48:03.143Z,43.2
2022-08-14T16:51:08.814Z,43.5
2022-08-14T16:54:02.832Z,43.5
2022-08-14T16:57:04.227Z,43.5
2022-08-14T17:00:19.848Z,43.5
2022-08-14T17:03:02.815Z,43
2022-08-14T17:06:02.829Z,43
2022-08-14T17:09:03.037Z,43
2022-08-14T17:12:09.640Z,43
2022-08-14T17:15:02.793Z,43
2022-08-14T17:18:02.815Z,43
2022-08-14T17:21:16.640Z,43
2022-08-14T17:24:51.843Z,44
2022-08-14T17:27:07.346Z,44
2022-08-14T17:30:03.381Z,44
2022-08-14T17:33:07.687Z,44
2022-08-14T17:36:02.849Z,44
2022-08-14T17:39:09.256Z,44
2022-08-14T17:42:15.331Z,44
2022-08-14T17:45:03.141Z,44
2022-08-14T17:48:02.845Z,44
2022-08-14T17:51:04.045Z,44
2022-08-14T17:54:08.452Z,44
2022-08-14T17:57:02.814Z,44
2022-08-14T18:00:03.840Z,44
2022-08-14T18:03:03.193Z,44
2022-08-14T18:06:57.187Z,44
2022-08-14T18:09:02.804Z,47.6
2022-08-14T18:12:05.723Z,47.6
2022-08-14T18:15:18.153Z,47.6
2022-08-14T18:18:02.927Z,47.6
2022-08-14T18:21:59.489Z,47.6
2022-08-14T18:24:02.867Z,47.6
2022-08-14T18:27:09.584Z,47.6
2022-08-14T18:30:40.076Z,47.6
2022-08-14T18:33:03.469Z,47.6
2022-08-14T18:36:57.707Z,47.6
2022-08-14T18:39:03.037Z,47.6
2022-08-14T18:42:02.863Z,48.7
2022-08-14T18:45:12.486Z,48.9
2022-08-14T18:48:18.949Z,48.9
2022-08-14T18:51:03.964Z,48.9
2022-08-14T18:54:02.944Z,48.9
2022-08-14T18:57:02.817Z,48.9
2022-08-14T19:00:03.247Z,48.9
2022-08-14T19:03:02.774Z,48.9
2022-08-14T19:06:02.795Z,48.9
2022-08-14T19:09:02.839Z,48.9
2022-08-14T19:12:02.758Z,48.9
2022-08-14T19:15:03.655Z,50.2
2022-08-14T19:18:19.099Z,50.2
2022-08-14T19:21:02.818Z,50.2
2022-08-14T19:24:02.739Z,50.2
2022-08-14T19:27:02.792Z,50.2
2022-08-14T19:30:04.302Z,51
2022-08-14T19:33:10.935Z,51
2022-08-14T19:36:03.282Z,51
2022-08-14T19:39:04.127Z,52.1
2022-08-14T19:42:12.884Z,52.1
2022-08-14T19:45:03.635Z,52.1
2022-08-14T19:48:03.285Z,52.1
2022-08-14T19:51:03.910Z,52.1
2022-08-14T19:54:02.833Z,52.1
2022-08-14T19:57:02.789Z,52.1
2022-08-14T20:00:04.599Z,52.1
2022-08-14T20:03:18.534Z,52.1
2022-08-14T20:06:05.718Z,52.1
2022-08-14T20:12:35.684Z,52.1
2022-08-14T20:15:03.489Z,52.1
2022-08-14T20:18:03.458Z,52.7
2022-08-14T20:21:07.269Z,52.7
2022-08-14T20:24:08.653Z,52.7
2022-08-14T20:27:02.922Z,52.7
2022-08-14T20:30:37.269Z,52.7
2022-08-14T20:33:03.847Z,52.7
2022-08-14T20:36:03.269Z,52.7
2022-08-14T20:39:02.825Z,52.7
2022-08-14T20:42:03.135Z,53.9
2022-08-14T20:45:06.458Z,53.9
2022-08-14T20:48:11.035Z,53.9
2022-08-14T20:51:03.274Z,53.9
2022-08-14T20:54:02.791Z,53.9
2022-08-14T20:57:02.797Z,53.9
2022-08-14T21:00:06.556Z,53.9
2022-08-14T21:03:02.852Z,53.9
2022-08-14T21:06:03.206Z,53.9
2022-08-14T21:09:02.797Z,53.9
2022-08-14T21:12:05.574Z,53.9
2022-08-14T21:15:03.129Z,55
2022-08-14T21:18:02.901Z,55
2022-08-14T21:21:07.548Z,55
2022-08-14T21:24:03.620Z,55
2022-08-14T21:27:24.837Z,55
2022-08-14T21:30:03.236Z,55
2022-08-14T21:33:03.471Z,55
2022-08-14T21:36:09.956Z,55
2022-08-14T21:39:02.737Z,55
2022-08-14T21:42:06.678Z,55
2022-08-14T21:45:03.784Z,55
2022-08-14T21:48:11.294Z,55.9
2022-08-14T21:54:06.227Z,55.9
2022-08-14T21:57:04.389Z,55.9
2022-08-14T22:00:36.113Z,55.9
2022-08-14T22:03:03.740Z,55.9
2022-08-14T22:06:02.763Z,55.9
2022-08-14T22:09:02.961Z,55.9
2022-08-14T22:12:02.811Z,57.6
2022-08-14T22:15:03.797Z,57.6
2022-08-14T22:18:04.353Z,57.6
2022-08-14T22:21:08.296Z,57.6
2022-08-14T22:24:12.469Z,57.6
2022-08-14T22:27:04.036Z,57.8
2022-08-14T22:30:03.014Z,57.8
2022-08-14T22:33:02.901Z,57.8
2022-08-14T22:36:02.878Z,57.8
2022-08-14T22:39:04.483Z,57.8
2022-08-14T22:42:03.362Z,57.8
2022-08-14T22:45:05.866Z,57.8
2022-08-14T22:48:02.772Z,57.8
2022-08-14T22:51:02.781Z,57.8
2022-08-14T22:54:51.727Z,58.1
2022-08-14T22:57:02.904Z,58.1
2022-08-14T23:00:02.808Z,58.1
2022-08-14T23:03:04.176Z,58.1
2022-08-14T23:06:02.811Z,58.1
2022-08-14T23:09:42.909Z,58.1
2022-08-14T23:12:02.986Z,58.4
2022-08-14T23:15:02.818Z,58.4
2022-08-14T23:18:05.566Z,58.4
2022-08-14T23:21:03.106Z,59.2
2022-08-14T23:24:05.229Z,59.2
2022-08-14T23:27:02.743Z,59.2
2022-08-14T23:30:02.983Z,59.2
2022-08-14T23:33:03.906Z,59.2
2022-08-14T23:36:02.803Z,59.2
2022-08-14T23:39:07.050Z,59.2
2022-08-14T23:42:07.467Z,59.2
2022-08-14T23:45:02.797Z,59.2
2022-08-14T23:48:03.038Z,61.3
2022-08-14T23:51:02.799Z,61.3
2022-08-14T23:54:04.718Z,61.3
2022-08-14T23:57:06.224Z,61.6
